createdAt,value
2024-05-09T00:02:29.650Z,8.07
2024-05-09T00:05:18.268Z,8.03
2024-05-09T00:08:07.109Z,7.97
2024-05-09T00:10:55.656Z,7.90
2024-05-09T00:13:44.093Z,7.85
2024-05-09T00:16:32.528Z,7.80
2024-05-09T00:19:21.387Z,7.76
2024-05-09T00:22:09.881Z,7.70
2024-05-09T00:24:58.661Z,7.65
2024-05-09T00:27:47.052Z,7.59
2024-05-09T00:30:37.069Z,7.54
2024-05-09T00:33:26.395Z,7.47
2024-05-09T00:36:14.978Z,7.43
2024-05-09T00:39:03.482Z,7.39
2024-05-09T00:41:51.839Z,7.34
2024-05-09T00:44:40.283Z,7.28
2024-05-09T00:47:28.950Z,7.24
2024-05-09T00:50:22.762Z,7.20
2024-05-09T00:53:18.963Z,7.16
2024-05-09T00:56:08.855Z,7.13
2024-05-09T00:58:57.426Z,7.10
2024-05-09T01:02:51.613Z,7.06
2024-05-09T01:05:40.582Z,7.01
2024-05-09T01:08:29.239Z,6.99
2024-05-09T01:11:18.329Z,6.99
2024-05-09T01:14:06.888Z,6.98
2024-05-09T01:16:55.477Z,6.97
2024-05-09T01:19:44.075Z,6.95
2024-05-09T01:22:35.713Z,6.94
2024-05-09T01:25:24.119Z,6.93
2024-05-09T01:28:12.672Z,6.93
2024-05-09T01:31:01.085Z,6.92
2024-05-09T01:33:49.692Z,6.90
2024-05-09T01:36:38.515Z,6.88
2024-05-09T01:39:26.874Z,6.85
2024-05-09T01:42:17.051Z,6.83
2024-05-09T01:45:05.703Z,6.80
2024-05-09T01:47:54.339Z,6.76
2024-05-09T01:50:43.725Z,6.72
2024-05-09T01:53:32.536Z,6.65
2024-05-09T01:56:21.172Z,6.56
2024-05-09T01:59:10.406Z,6.48
2024-05-09T02:01:59.441Z,6.41
2024-05-09T02:04:48.979Z,6.32
2024-05-09T02:07:37.423Z,6.23
2024-05-09T02:10:31.978Z,6.14
2024-05-09T02:13:21.489Z,6.02
2024-05-09T02:16:12.819Z,5.92
2024-05-09T02:19:01.292Z,5.81
2024-05-09T02:21:49.820Z,5.68
2024-05-09T02:24:38.168Z,5.57
2024-05-09T02:27:26.684Z,5.54
2024-05-09T02:30:22.716Z,5.52
2024-05-09T02:33:18.823Z,5.46
2024-05-09T02:36:07.672Z,5.43
2024-05-09T02:38:56.035Z,5.39
2024-05-09T02:41:44.447Z,5.37
2024-05-09T02:44:32.926Z,5.36
2024-05-09T02:47:21.603Z,5.32
2024-05-09T02:50:13.295Z,5.27
2024-05-09T02:53:04.617Z,5.26
2024-05-09T02:55:52.981Z,5.24
2024-05-09T02:58:41.365Z,5.25
2024-05-09T03:01:29.777Z,5.23
2024-05-09T03:04:18.728Z,5.23
2024-05-09T03:07:07.124Z,5.25
2024-05-09T03:09:55.516Z,5.24
2024-05-09T03:12:44.132Z,5.23
2024-05-09T03:15:32.996Z,5.25
2024-05-09T03:18:21.626Z,5.30
2024-05-09T03:21:10.484Z,5.36
2024-05-09T03:23:59.137Z,5.39
2024-05-09T03:26:48.812Z,5.38
2024-05-09T03:29:37.402Z,5.40
2024-05-09T03:32:26.009Z,5.46
2024-05-09T03:35:14.611Z,5.57
2024-05-09T03:38:03.243Z,5.84
2024-05-09T03:40:51.969Z,6.34
2024-05-09T03:43:40.382Z,7.19
2024-05-09T03:46:28.761Z,8.40
2024-05-09T03:49:17.782Z,9.66
2024-05-09T03:52:06.309Z,10.86
2024-05-09T03:54:54.939Z,11.99
2024-05-09T03:57:43.268Z,13.09
2024-05-09T04:00:37.731Z,14.09
2024-05-09T04:03:28.271Z,15.16
2024-05-09T04:06:23.603Z,16.08
2024-05-09T04:09:12.098Z,16.94
2024-05-09T04:12:01.023Z,17.70
2024-05-09T04:14:49.508Z,18.45
2024-05-09T04:17:37.972Z,19.02
2024-05-09T04:23:17.971Z,20.10
2024-05-09T04:26:08.452Z,20.55
2024-05-09T04:28:57.105Z,20.83
2024-05-09T04:31:45.564Z,20.35
2024-05-09T04:34:35.596Z,19.45
2024-05-09T04:37:25.357Z,18.50
2024-05-09T04:40:24.137Z,16.97
2024-05-09T04:43:21.103Z,15.33
2024-05-09T04:46:09.465Z,14.11
2024-05-09T04:48:58.142Z,13.47
2024-05-09T04:51:46.736Z,12.94
2024-05-09T04:54:36.619Z,12.49
2024-05-09T04:57:25.212Z,12.32
2024-05-09T05:00:15.012Z,12.11
2024-05-09T05:03:14.481Z,11.89
2024-05-09T05:06:04.532Z,11.75
2024-05-09T05:08:53.135Z,11.66
2024-05-09T05:11:41.745Z,11.62
2024-05-09T05:14:30.292Z,11.55
2024-05-09T05:17:18.962Z,11.49
2024-05-09T05:20:08.762Z,11.50
2024-05-09T05:22:59.278Z,11.52
2024-05-09T05:25:50.320Z,11.54
2024-05-09T05:28:38.749Z,11.67
2024-05-09T05:31:27.280Z,11.73
2024-05-09T05:34:15.891Z,11.85
2024-05-09T05:37:04.668Z,12.02
2024-05-09T05:39:53.050Z,12.11
2024-05-09T05:42:43.086Z,12.20
2024-05-09T05:45:31.514Z,12.17
2024-05-09T05:48:20.131Z,12.09
2024-05-09T05:51:08.686Z,12.17
2024-05-09T05:53:57.190Z,12.28
2024-05-09T05:56:45.950Z,12.49
2024-05-09T05:59:34.523Z,12.49
2024-05-09T06:02:23.155Z,12.58
2024-05-09T06:05:11.826Z,12.81
2024-05-09T06:08:00.656Z,13.12
2024-05-09T06:10:49.882Z,13.35
2024-05-09T06:13:42.779Z,13.43
2024-05-09T06:16:31.394Z,13.33
2024-05-09T06:19:20.084Z,13.33
2024-05-09T06:22:10.865Z,13.37
2024-05-09T06:24:59.265Z,13.32
2024-05-09T06:27:47.994Z,13.44
2024-05-09T06:30:40.152Z,13.53
2024-05-09T06:33:30.731Z,13.74
2024-05-09T06:36:19.636Z,14.08
2024-05-09T06:39:10.195Z,14.38
2024-05-09T06:41:58.651Z,14.48
2024-05-09T06:44:47.139Z,14.52
2024-05-09T06:47:35.886Z,14.45
2024-05-09T06:50:28.257Z,14.43
2024-05-09T06:53:25.768Z,14.49
2024-05-09T06:56:14.397Z,14.73
2024-05-09T06:59:03.295Z,14.93
2024-05-09T07:01:52.370Z,14.86
2024-05-09T07:04:41.038Z,15.09
2024-05-09T07:07:30.231Z,15.38
2024-05-09T07:10:25.746Z,15.50
2024-05-09T07:13:20.862Z,15.49
2024-05-09T07:16:09.357Z,15.52
2024-05-09T07:18:58.031Z,15.80
2024-05-09T07:21:46.554Z,15.98
2024-05-09T07:24:36.942Z,15.98
2024-05-09T07:27:27.845Z,15.89
2024-05-09T07:30:23.012Z,15.87
2024-05-09T07:33:21.514Z,15.86
2024-05-09T07:36:11.412Z,16.07
2024-05-09T07:39:00.686Z,16.16
2024-05-09T07:41:49.043Z,16.10
2024-05-09T07:44:37.426Z,16.21
2024-05-09T07:48:56.961Z,16.43
2024-05-09T07:52:32.406Z,16.29
2024-05-09T07:53:49.201Z,16.24
2024-05-09T07:56:40.795Z,16.30
2024-05-09T07:59:29.316Z,16.45
2024-05-09T08:02:17.844Z,16.61
2024-05-09T08:05:06.588Z,16.63
2024-05-09T08:07:56.160Z,16.71
2024-05-09T08:10:44.825Z,16.64
2024-05-09T08:13:33.709Z,16.56
2024-05-09T08:16:22.400Z,16.61
2024-05-09T08:19:11.073Z,16.60
2024-05-09T08:22:01.798Z,16.64
2024-05-09T08:24:50.960Z,16.75
2024-05-09T08:27:40.853Z,16.78
2024-05-09T08:30:34.111Z,16.84
2024-05-09T08:33:25.807Z,16.98
2024-05-09T08:36:15.318Z,17.00
2024-05-09T08:39:04.065Z,16.97
2024-05-09T08:41:52.491Z,16.97
2024-05-09T08:44:41.344Z,16.90
2024-05-09T08:47:32.811Z,16.94
2024-05-09T08:50:29.244Z,17.01
2024-05-09T08:53:25.291Z,17.16
2024-05-09T08:56:16.175Z,17.29
2024-05-09T08:59:06.735Z,17.53
2024-05-09T09:01:55.549Z,17.84
2024-05-09T09:05:16.738Z,17.94
2024-05-09T09:08:08.331Z,17.69
2024-05-09T09:10:58.729Z,17.62
2024-05-09T09:13:47.287Z,17.56
2024-05-09T09:16:36.961Z,17.58
2024-05-09T09:19:25.495Z,17.62
2024-05-09T09:22:15.126Z,17.76
2024-05-09T09:25:03.756Z,17.57
2024-05-09T09:27:52.279Z,17.56
2024-05-09T09:30:41.579Z,17.49
2024-05-09T09:33:31.386Z,17.47
2024-05-09T09:36:20.471Z,17.61
2024-05-09T09:39:09.665Z,17.73
2024-05-09T09:41:59.693Z,17.93
2024-05-09T09:45:01.612Z,18.17
2024-05-09T09:47:56.340Z,18.56
2024-05-09T09:50:45.505Z,18.51
2024-05-09T09:53:34.931Z,18.46
2024-05-09T09:56:24.900Z,18.55
2024-05-09T09:59:14.097Z,18.75
2024-05-09T10:02:02.697Z,18.63
2024-05-09T10:04:51.600Z,18.54
2024-05-09T10:07:42.996Z,18.48
2024-05-09T10:10:34.456Z,18.48
2024-05-09T10:13:32.850Z,18.60
2024-05-09T10:16:24.791Z,18.58
2024-05-09T10:19:26.546Z,18.55
2024-05-09T10:22:30.882Z,18.61
2024-05-09T10:25:19.463Z,18.72
2024-05-09T10:28:11.931Z,18.65
2024-05-09T10:31:18.538Z,18.67
2024-05-09T10:34:07.112Z,18.59
2024-05-09T10:36:55.864Z,18.50
2024-05-09T10:39:44.816Z,18.55
2024-05-09T10:42:33.975Z,18.46
2024-05-09T10:45:24.789Z,18.39
2024-05-09T10:48:13.230Z,18.61
2024-05-09T10:51:02.256Z,18.53
2024-05-09T10:53:52.350Z,18.68
2024-05-09T10:56:41.935Z,18.77
2024-05-09T10:59:34.561Z,19.01
2024-05-09T11:02:24.000Z,19.41
2024-05-09T11:05:12.733Z,19.81
2024-05-09T11:08:01.355Z,20.15
2024-05-09T11:10:54.119Z,20.34
2024-05-09T11:13:42.676Z,20.34
2024-05-09T11:16:31.097Z,20.27
2024-05-09T11:19:20.009Z,20.05
2024-05-09T11:22:08.810Z,20.02
2024-05-09T11:24:57.493Z,20.14
2024-05-09T11:27:46.002Z,20.27
2024-05-09T11:30:35.394Z,20.22
2024-05-09T11:33:23.912Z,19.97
2024-05-09T11:36:12.829Z,19.79
2024-05-09T11:39:01.246Z,19.71
2024-05-09T11:41:49.623Z,19.75
2024-05-09T11:44:38.001Z,19.53
2024-05-09T11:47:26.634Z,19.34
2024-05-09T11:50:22.571Z,19.31
2024-05-09T11:53:17.878Z,19.30
2024-05-09T11:56:06.524Z,19.36
2024-05-09T11:58:54.890Z,19.49
2024-05-09T12:01:43.708Z,19.44
2024-05-09T12:04:32.688Z,19.45
2024-05-09T12:07:21.652Z,19.45
2024-05-09T12:10:16.563Z,19.32
2024-05-09T12:13:08.501Z,19.32
2024-05-09T12:15:57.226Z,19.30
2024-05-09T12:18:45.964Z,19.19
2024-05-09T12:21:34.597Z,19.10
2024-05-09T12:24:24.815Z,18.96
2024-05-09T12:27:13.351Z,18.91
2024-05-09T12:30:01.807Z,18.82
2024-05-09T12:32:50.431Z,18.63
2024-05-09T12:35:39.219Z,18.61
2024-05-09T12:38:27.617Z,18.69
2024-05-09T12:41:15.970Z,18.81
2024-05-09T12:44:04.501Z,18.87
2024-05-09T12:46:52.839Z,18.90
2024-05-09T12:49:41.574Z,18.99
2024-05-09T12:52:30.241Z,18.89
2024-05-09T12:55:18.672Z,18.82
2024-05-09T12:58:07.683Z,18.74
2024-05-09T13:00:56.525Z,18.80
2024-05-09T13:03:45.103Z,18.82
2024-05-09T13:06:33.735Z,18.99
2024-05-09T13:09:22.240Z,19.10
2024-05-09T13:12:10.601Z,19.23
2024-05-09T13:14:59.027Z,19.30
2024-05-09T13:17:47.664Z,19.21
2024-05-09T13:20:37.085Z,19.17
2024-05-09T13:23:25.663Z,19.19
2024-05-09T13:26:14.096Z,19.08
2024-05-09T13:29:02.726Z,18.88
2024-05-09T13:31:51.155Z,18.83
2024-05-09T13:34:39.777Z,18.92
2024-05-09T13:37:28.477Z,19.05
2024-05-09T13:40:26.700Z,19.20
2024-05-09T13:43:19.129Z,19.36
2024-05-09T13:46:07.843Z,19.33
2024-05-09T13:48:56.405Z,19.27
2024-05-09T13:51:45.010Z,19.24
2024-05-09T13:54:33.632Z,19.36
2024-05-09T13:57:22.813Z,19.35
2024-05-09T14:00:22.930Z,19.42
2024-05-09T14:03:21.137Z,19.32
2024-05-09T14:06:13.021Z,19.14
2024-05-09T14:09:04.441Z,18.88
2024-05-09T14:11:52.852Z,18.83
2024-05-09T14:14:41.395Z,18.85
2024-05-09T14:17:30.016Z,18.84
2024-05-09T14:20:28.264Z,18.85
2024-05-09T14:23:19.975Z,18.83
2024-05-09T14:26:08.361Z,18.80
2024-05-09T14:28:56.936Z,18.76
2024-05-09T14:31:45.409Z,18.69
2024-05-09T14:34:34.412Z,18.77
2024-05-09T14:37:22.866Z,18.86
2024-05-09T14:40:25.965Z,18.86
2024-05-09T14:43:19.949Z,18.77
2024-05-09T14:46:08.842Z,18.68
2024-05-09T14:48:59.413Z,18.71
2024-05-09T14:51:48.326Z,18.66
2024-05-09T14:54:36.926Z,18.71
2024-05-09T14:57:25.468Z,18.84
2024-05-09T15:00:21.109Z,18.92
2024-05-09T15:03:14.920Z,18.93
2024-05-09T15:06:04.693Z,18.94
2024-05-09T15:08:57.472Z,18.92
2024-05-09T15:11:47.432Z,18.93
2024-05-09T15:14:36.587Z,18.89
2024-05-09T15:17:25.137Z,18.80
2024-05-09T15:20:17.318Z,18.65
2024-05-09T15:23:09.135Z,18.49
2024-05-09T15:25:57.670Z,18.42
2024-05-09T15:28:46.072Z,18.34
2024-05-09T15:31:34.653Z,18.17
2024-05-09T15:34:23.188Z,18.00
2024-05-09T15:37:12.886Z,17.87
2024-05-09T15:40:01.752Z,17.76
2024-05-09T15:42:50.580Z,17.72
2024-05-09T15:45:40.838Z,17.72
2024-05-09T15:48:30.079Z,17.65
2024-05-09T15:51:18.587Z,17.58
2024-05-09T15:54:07.095Z,17.45
2024-05-09T15:56:55.595Z,17.32
2024-05-09T15:59:44.074Z,17.25
2024-05-09T16:02:34.101Z,17.23
2024-05-09T16:05:23.135Z,17.22
2024-05-09T16:08:13.675Z,17.21
2024-05-09T16:11:02.762Z,17.16
2024-05-09T16:13:51.295Z,17.11
2024-05-09T16:16:39.956Z,17.04
2024-05-09T16:19:28.690Z,16.94
2024-05-09T16:22:17.243Z,16.88
2024-05-09T16:25:06.274Z,16.80
2024-05-09T16:27:57.509Z,16.71
2024-05-09T16:30:45.962Z,16.60
2024-05-09T16:33:34.629Z,16.48
2024-05-09T16:36:23.267Z,16.40
2024-05-09T16:39:11.671Z,16.33
2024-05-09T16:42:00.060Z,16.26
2024-05-09T16:44:48.475Z,16.23
2024-05-09T16:47:36.954Z,16.19
2024-05-09T16:50:29.634Z,16.12
2024-05-09T16:53:21.547Z,16.08
2024-05-09T16:56:10.187Z,16.00
2024-05-09T16:58:58.711Z,15.93
2024-05-09T17:01:47.329Z,15.89
2024-05-09T17:04:35.967Z,15.85
2024-05-09T17:07:24.432Z,15.79
2024-05-09T17:10:22.190Z,15.75
2024-05-09T17:13:15.287Z,15.70
2024-05-09T17:16:04.123Z,15.67
2024-05-09T17:18:52.672Z,15.61
2024-05-09T17:21:41.231Z,15.56
2024-05-09T17:24:29.759Z,15.50
2024-05-09T17:27:18.264Z,15.43
2024-05-09T17:30:08.114Z,15.37
2024-05-09T17:32:59.357Z,15.31
2024-05-09T17:35:50.160Z,15.25
2024-05-09T17:38:38.622Z,15.19
2024-05-09T17:41:27.052Z,15.13
2024-05-09T17:44:15.842Z,15.06
2024-05-09T17:47:04.761Z,14.99
2024-05-09T17:49:53.475Z,14.92
2024-05-09T17:52:41.984Z,14.82
2024-05-09T17:55:31.114Z,14.69
2024-05-09T17:58:20.925Z,14.56
2024-05-09T18:01:09.712Z,14.42
2024-05-09T18:03:58.377Z,14.28
2024-05-09T18:06:47.025Z,14.14
2024-05-09T18:09:35.491Z,13.99
2024-05-09T18:12:23.985Z,13.83
2024-05-09T18:15:12.403Z,13.68
2024-05-09T18:18:01.625Z,13.53
2024-05-09T18:20:50.224Z,13.38
2024-05-09T18:23:38.626Z,13.24
2024-05-09T18:26:27.302Z,13.11
2024-05-09T18:29:19.965Z,12.96
2024-05-09T18:32:10.178Z,12.81
2024-05-09T18:34:58.642Z,12.67
2024-05-09T18:37:47.217Z,12.54
2024-05-09T18:40:37.870Z,12.40
2024-05-09T18:43:34.741Z,12.26
2024-05-09T18:46:27.508Z,12.11
2024-05-09T18:49:16.298Z,11.98
2024-05-09T18:52:05.175Z,11.85
2024-05-09T18:54:53.595Z,11.74
2024-05-09T18:57:42.628Z,11.63
2024-05-09T19:00:35.967Z,11.52
2024-05-09T19:03:27.874Z,11.42
2024-05-09T19:06:16.713Z,11.33
2024-05-09T19:09:05.704Z,11.23
2024-05-09T19:11:54.221Z,11.12
2024-05-09T19:14:42.974Z,11.01
2024-05-09T19:17:31.679Z,10.91
2024-05-09T19:20:28.486Z,10.81
2024-05-09T19:23:21.744Z,10.69
2024-05-09T19:26:11.455Z,10.60
2024-05-09T19:29:00.428Z,10.52
2024-05-09T19:31:48.968Z,10.43
2024-05-09T19:34:37.844Z,10.32
2024-05-09T19:37:29.455Z,10.22
2024-05-09T19:40:24.834Z,10.12
2024-05-09T19:43:19.303Z,10.01
2024-05-09T19:46:07.986Z,9.90
2024-05-09T19:48:57.246Z,9.79
2024-05-09T19:51:46.092Z,9.71
2024-05-09T19:54:34.684Z,9.62
2024-05-09T19:57:23.142Z,9.54
2024-05-09T20:00:17.883Z,9.46
2024-05-09T20:03:12.443Z,9.36
2024-05-09T20:06:01.123Z,9.25
2024-05-09T20:08:49.582Z,9.15
2024-05-09T20:11:38.704Z,9.07
2024-05-09T20:14:27.356Z,8.98
2024-05-09T20:17:15.776Z,8.90
2024-05-09T20:20:09.153Z,8.83
2024-05-09T20:22:59.998Z,8.78
2024-05-09T20:25:48.355Z,8.74
2024-05-09T20:28:37.179Z,8.69
2024-05-09T20:31:25.732Z,8.64
2024-05-09T20:34:14.255Z,8.54
2024-05-09T20:37:02.803Z,8.45
2024-05-09T20:39:51.339Z,8.38
2024-05-09T20:42:39.759Z,8.30
2024-05-09T20:45:28.216Z,8.22
2024-05-09T20:48:16.812Z,8.15
2024-05-09T20:51:05.610Z,8.08
2024-05-09T20:53:54.049Z,8.00
2024-05-09T20:56:43.189Z,7.93
2024-05-09T20:59:31.664Z,7.85
2024-05-09T21:02:20.612Z,7.77
2024-05-09T21:05:09.718Z,7.72
2024-05-09T21:07:58.504Z,7.69
2024-05-09T21:10:47.614Z,7.64
2024-05-09T21:13:36.424Z,7.62
2024-05-09T21:16:25.265Z,7.59
2024-05-09T21:19:13.800Z,7.57
2024-05-09T21:22:02.291Z,7.52
2024-05-09T21:24:50.858Z,7.47
2024-05-09T21:27:39.405Z,7.43
2024-05-09T21:30:37.653Z,7.36
2024-05-09T21:33:30.323Z,7.29
2024-05-09T21:36:18.994Z,7.22
2024-05-09T21:39:09.415Z,7.14
2024-05-09T21:42:01.602Z,7.07
2024-05-09T21:44:50.103Z,7.01
2024-05-09T21:47:38.603Z,6.96
2024-05-09T21:50:36.063Z,6.90
2024-05-09T21:53:28.569Z,6.86
2024-05-09T21:56:16.999Z,6.84
2024-05-09T21:59:05.391Z,6.80
2024-05-09T22:01:54.045Z,6.76
2024-05-09T22:04:42.557Z,6.72
2024-05-09T22:07:30.953Z,6.69
2024-05-09T22:10:25.772Z,6.64
2024-05-09T22:13:20.115Z,6.59
2024-05-09T22:16:08.760Z,6.52
2024-05-09T22:18:57.697Z,6.45
2024-05-09T22:21:46.153Z,6.38
2024-05-09T22:24:34.894Z,6.30
2024-05-09T22:27:24.782Z,6.26
2024-05-09T22:30:21.231Z,6.21
2024-05-09T22:33:16.138Z,6.18
2024-05-09T22:36:07.280Z,6.16
2024-05-09T22:38:55.825Z,6.14
2024-05-09T22:41:45.403Z,6.09
2024-05-09T22:44:33.984Z,6.05
2024-05-09T22:47:22.472Z,5.99
2024-05-09T22:50:16.150Z,5.94
2024-05-09T22:53:10.669Z,5.88
2024-05-09T22:55:59.208Z,5.82
2024-05-09T22:58:47.565Z,5.77
2024-05-09T23:01:36.264Z,5.70
2024-05-09T23:04:24.754Z,5.64
2024-05-09T23:07:13.359Z,5.60
2024-05-09T23:10:01.919Z,5.59
2024-05-09T23:12:50.404Z,5.58
2024-05-09T23:15:39.211Z,5.56
2024-05-09T23:18:28.077Z,5.55
2024-05-09T23:21:16.604Z,5.51
2024-05-09T23:24:05.266Z,5.46
2024-05-09T23:26:53.699Z,5.42
2024-05-09T23:29:42.282Z,5.37
2024-05-09T23:32:30.695Z,5.31
2024-05-09T23:35:19.189Z,5.24
2024-05-09T23:38:07.640Z,5.19
2024-05-09T23:40:56.159Z,5.15
2024-05-09T23:43:44.572Z,5.13
2024-05-09T23:46:32.959Z,5.11
2024-05-09T23:49:21.383Z,5.09
2024-05-09T23:52:09.932Z,5.08
2024-05-09T23:54:58.332Z,5.07
2024-05-09T23:57:46.731Z,5.06
